Aeroporto :
LOGIN :

Iscrizione | Disclaimer

   EN    FR    IT 

 










Sommario :    VFR   VFR Marginale   IFR   IFR Intensivo   IFR Molto Intensivo
Visibilità : 
Base nubi : 
>= 8 km
>= 3000ft
5 / 8 km
1000 / 3000 ft
1500m / 5 km
500 / 1000 ft
800 / 1500m
200 / 500 ft
< 800m
< 200 ft
Simboli :   Temporali  Nebbia  Neve Forte  Precipitazioni Forti  Vento > 20 kt
SIGMETs :   Varie  Temporali  Ghiacco  Turbolenza  Onda orograficha  Ceneri Vulcaniche






- Altitudine del aeroporto : 1989 ft
- Codice IATA : KLV


LKKV - Karlovy Vary

ULTIMO METAR :
  • 151400Z 13006KT 5000 BR OVC005 12/10 Q1008

METARs OBSOLETI :
  • 151330Z 14005KT 100V170 6000 OVC006 12/10 Q1008
  • 151300Z 14006KT 120V180 7000 OVC005 12/10 Q1009
  • 151230Z 16003KT 130V190 8000 BKN005 OVC007 12/11 Q1009
  • 151200Z 12005KT 9000 SCT006 OVC007 12/12 Q1009
  • 151149Z 13004KT 100V160 8000 BKN005 OVC007 12/12 Q1009 RMK REG QNH 1007
  • 151130Z 17002KT 5000 BR BKN004 OVC006 12/11 Q1009

TAF AMD TAF LKKV
Valido dal 15 a 14 ore il 16 a 18 ore UTC


151405Z 1514/1618 12005KT 4000 BR OVC004
BECMG 1514/1517 CAVOK
BECMG 1519/1522 5000 BR BKN015
TEMPO 1522/1600 2000 BCFG BR BKN007
BECMG 1600/1602 26010KT 8000 BKN023
TEMPO 1602/1618 27013G24KT 6000 RA BKN014



MetMap, La meteo Aeronautica in un colpo d'occhio ! - Copyright ORBIFLY Dicembre 2007 - Disclaimer

ORBIFLY MET'MAP TEAM :

Programmazione e sviluppo : Alexandra Zaïnal
Concezione e sviluppo : Baudouin d'Aumeries
Co-Programmazione e sviluppo : Marc-Olivier Méhu
Supporto tecnico e logistico : Manuel Goepfert
Aiuto per la traduzione : Arnaldo La Scala

Contatto : metmap@orbifly.com




FONTI E CREDITI :

   NOAA